Time;durP1;ratioP1;P1;durP2;ratioP2;P2;SDS_P1;SDS_P2;PMS_P1;PMS_P2;Temp;Humidity;BMP_temperature;BMP_pressure;BME280_temperature;BME280_humidity;BME280_pressure;Samples;Min_cycle;Max_cycle;Signal;HPM_P1;HPM_P2
2021/06/21 00:00:41;;;;;;;2.60;1.40;;;;;;;24.09;47.99;100890.69;4989006;28;20196;-70
2021/06/21 00:03:06;;;;;;;2.20;1.07;;;;;;;24.05;48.34;100889.94;4977844;28;20169;-71
2021/06/21 00:05:31;;;;;;;3.07;1.33;;;;;;;24.05;48.24;100897.78;4969685;28;20235;-71
2021/06/21 00:07:57;;;;;;;2.80;0.90;;;;;;;24.06;47.96;100890.78;4970999;28;20189;-73
2021/06/21 00:10:23;;;;;;;2.43;1.20;;;;;;;24.05;48.66;100902.16;4969460;28;20272;-70
2021/06/21 00:12:48;;;;;;;4.17;1.20;;;;;;;24.00;48.26;100902.34;4971066;28;20181;-70
2021/06/21 00:15:17;;;;;;;3.73;1.30;;;;;;;24.01;48.25;100900.56;4970951;28;20199;-69
2021/06/21 00:17:43;;;;;;;1.80;1.03;;;;;;;24.00;48.43;100902.34;4970864;28;20196;-72
2021/06/21 00:20:09;;;;;;;2.63;1.30;;;;;;;24.01;47.99;100911.03;4971503;28;20545;-70
2021/06/21 00:22:34;;;;;;;2.03;1.10;;;;;;;24.02;48.13;100908.34;4974604;28;20413;-70
2021/06/21 00:24:59;;;;;;;1.67;1.03;;;;;;;24.01;48.17;100921.50;4991820;28;20282;-69
2021/06/21 00:27:25;;;;;;;1.80;1.00;;;;;;;23.99;48.15;100920.69;4991225;28;20172;-71
2021/06/21 00:29:51;;;;;;;1.57;1.00;;;;;;;24.01;48.25;100918.88;4992623;28;20199;-72
2021/06/21 00:32:16;;;;;;;2.77;1.20;;;;;;;24.00;48.37;100919.78;4992538;28;20543;-72
2021/06/21 00:34:42;;;;;;;2.10;1.00;;;;;;;23.97;48.24;100920.75;4992732;28;20182;-72
2021/06/21 00:37:07;;;;;;;3.17;1.20;;;;;;;23.93;48.42;100908.66;4992830;28;20179;-71
2021/06/21 00:39:32;;;;;;;3.63;1.20;;;;;;;23.95;48.25;100906.88;4993024;28;20254;-69
2021/06/21 00:41:57;;;;;;;2.47;1.10;;;;;;;23.95;48.36;100911.25;4993165;28;20207;-70
2021/06/21 00:44:23;;;;;;;1.67;0.93;;;;;;;23.93;47.92;100908.66;4992969;28;20264;-72
2021/06/21 00:46:48;;;;;;;2.60;1.27;;;;;;;23.90;48.39;100906.16;4993017;28;20815;-72
2021/06/21 00:49:13;;;;;;;3.50;1.07;;;;;;;23.91;48.26;100901.78;4991336;28;20199;-71
2021/06/21 00:51:39;;;;;;;2.10;1.00;;;;;;;23.89;48.45;100895.72;4993418;28;20594;-69
2021/06/21 00:54:04;;;;;;;5.00;1.30;;;;;;;23.85;48.39;100894.13;5008140;28;20214;-72
2021/06/21 00:56:30;;;;;;;2.73;1.17;;;;;;;23.80;48.23;100898.66;4993241;28;20179;-71
2021/06/21 00:59:00;;;;;;;2.23;1.23;;;;;;;23.78;48.37;100898.69;4992779;28;20187;-71
2021/06/21 01:01:25;;;;;;;2.27;0.97;;;;;;;23.75;48.53;100893.56;4993357;28;20180;-72
2021/06/21 01:03:51;;;;;;;3.17;1.10;;;;;;;23.75;48.48;100892.72;4993039;28;20652;-69
2021/06/21 01:06:16;;;;;;;2.57;1.30;;;;;;;23.69;48.61;100890.28;4993064;28;20274;-70
2021/06/21 01:08:41;;;;;;;3.37;1.40;;;;;;;23.70;48.48;100886.75;4992944;28;20210;-71
2021/06/21 01:11:07;;;;;;;2.30;1.10;;;;;;;23.68;48.52;100883.34;4992877;28;20707;-72
2021/06/21 01:13:57;;;;;;;4.90;1.47;;;;;;;23.67;48.50;100886.88;4992918;28;20180;-72
2021/06/21 01:16:27;;;;;;;2.33;1.10;;;;;;;23.68;48.46;100879.00;4991224;28;20183;-70
2021/06/21 01:19:21;;;;;;;4.23;1.10;;;;;;;23.66;48.44;100878.16;4992686;28;20176;-72
2021/06/21 01:22:30;;;;;;;3.30;1.20;;;;;;;23.62;48.61;100878.34;4992672;28;20252;-72
2021/06/21 01:25:01;;;;;;;5.37;1.20;;;;;;;23.58;48.70;100869.72;4992602;28;20210;-72
2021/06/21 01:27:45;;;;;;;3.70;1.30;;;;;;;23.54;48.86;100843.72;4992586;28;20685;-68
2021/06/21 01:30:12;;;;;;;3.73;1.40;;;;;;;23.54;48.89;100836.75;4992028;28;20187;-69
2021/06/21 01:32:49;;;;;;;5.07;1.40;;;;;;;23.52;48.94;100833.31;4992678;28;20182;-72
2021/06/21 01:35:36;;;;;;;1.50;1.10;;;;;;;23.49;48.94;100827.34;4992016;28;20193;-68
2021/06/21 01:38:05;;;;;;;2.57;1.27;;;;;;;23.45;48.85;100818.75;4989930;28;20313;-72
2021/06/21 01:40:38;;;;;;;3.30;1.10;;;;;;;23.46;49.20;100816.97;4992463;28;20220;-72
2021/06/21 01:43:06;;;;;;;4.50;1.47;;;;;;;23.45;49.19;100807.44;4992537;28;20207;-71
2021/06/21 01:45:33;;;;;;;4.50;1.30;;;;;;;23.41;49.36;100808.44;4991691;28;20180;-70
2021/06/21 01:48:01;;;;;;;4.47;1.63;;;;;;;23.40;49.18;100801.50;4992047;28;20242;-72
2021/06/21 01:50:27;;;;;;;3.97;1.60;;;;;;;23.29;49.33;100806.25;4992050;28;20249;-71
2021/06/21 01:53:00;;;;;;;3.17;1.23;;;;;;;23.21;49.30;100793.41;4991758;28;20179;-69
2021/06/21 01:55:26;;;;;;;3.03;1.53;;;;;;;23.27;49.26;100797.59;4992381;28;20175;-72
2021/06/21 01:57:53;;;;;;;4.83;1.60;;;;;;;23.30;49.14;100797.50;4992188;28;20179;-72
2021/06/21 02:00:19;;;;;;;5.33;1.60;;;;;;;23.29;48.99;100798.41;4990408;28;20200;-71
2021/06/21 02:02:45;;;;;;;2.77;1.50;;;;;;;23.28;49.20;100797.53;4991717;28;20230;-72
2021/06/21 02:05:14;;;;;;;8.00;1.40;;;;;;;23.25;49.08;100807.25;5006961;28;20209;-70
2021/06/21 02:07:42;;;;;;;7.63;1.80;;;;;;;23.24;49.20;100809.00;4991936;28;20234;-71
2021/06/21 02:10:09;;;;;;;4.87;1.40;;;;;;;23.25;48.95;100815.09;4991903;28;20250;-72
2021/06/21 02:12:35;;;;;;;4.30;1.47;;;;;;;23.22;49.16;100830.88;4991606;28;20633;-70
2021/06/21 02:15:02;;;;;;;5.57;1.60;;;;;;;23.22;49.15;100831.72;4991750;28;20684;-72
2021/06/21 02:17:30;;;;;;;4.70;1.77;;;;;;;23.20;49.26;100832.69;4991644;28;20180;-73
2021/06/21 02:19:56;;;;;;;6.63;1.70;;;;;;;23.17;49.32;100843.19;4990309;28;20742;-71
2021/06/21 02:22:27;;;;;;;5.60;1.60;;;;;;;23.20;49.71;100848.38;4990371;28;20176;-69
2021/06/21 02:24:56;;;;;;;4.37;1.50;;;;;;;23.22;49.54;100852.63;4991578;28;20200;-69
2021/06/21 02:27:22;;;;;;;3.63;1.50;;;;;;;23.25;49.43;100868.19;4991272;28;20180;-72
2021/06/21 02:29:49;;;;;;;5.57;1.70;;;;;;;23.28;49.83;100862.88;4991308;28;20187;-71
2021/06/21 02:32:15;;;;;;;3.97;1.50;;;;;;;23.29;49.67;100859.38;4991153;28;20184;-71
2021/06/21 02:34:41;;;;;;;4.13;1.63;;;;;;;23.31;49.66;100868.03;4991467;28;20651;-69
2021/06/21 02:37:06;;;;;;;5.73;1.73;;;;;;;23.33;49.68;100862.72;4991456;28;20184;-71
2021/06/21 02:39:31;;;;;;;3.87;1.57;;;;;;;23.32;49.74;100861.88;4990820;28;20195;-72
2021/06/21 02:41:56;;;;;;;4.67;1.50;;;;;;;23.33;49.42;100860.09;4991194;28;20200;-68
2021/06/21 02:44:22;;;;;;;5.27;1.80;;;;;;;23.34;49.86;100851.38;4990313;28;20223;-71
2021/06/21 02:46:47;;;;;;;4.80;1.73;;;;;;;23.32;50.06;100847.94;4991285;28;20174;-70
2021/06/21 02:49:12;;;;;;;9.03;2.13;;;;;;;23.27;50.23;100837.66;4990669;28;20192;-72
2021/06/21 02:51:47;;;;;;;4.10;1.57;;;;;;;23.22;49.59;100844.78;4991216;28;20172;-68
2021/06/21 02:54:28;;;;;;;5.50;1.53;;;;;;;23.24;50.25;100850.81;4990838;28;20178;-73
2021/06/21 02:57:08;;;;;;;5.03;1.80;;;;;;;23.26;50.38;100849.03;4976837;28;20175;-72
2021/06/21 02:59:37;;;;;;;6.13;1.73;;;;;;;23.26;50.09;100843.81;4986248;28;20203;-71
2021/06/21 03:02:05;;;;;;;4.80;1.83;;;;;;;23.23;50.29;100845.63;4991091;28;20180;-70
2021/06/21 03:04:32;;;;;;;2.90;1.57;;;;;;;23.24;50.21;100849.97;4990606;28;20222;-72
2021/06/21 03:07:00;;;;;;;5.33;1.40;;;;;;;23.25;50.15;100849.91;4990477;28;20266;-71
2021/06/21 03:09:27;;;;;;;5.17;1.87;;;;;;;23.26;50.35;100838.56;4990460;28;20200;-69
2021/06/21 03:11:54;;;;;;;4.43;1.77;;;;;;;23.23;50.34;100830.81;4990494;28;20352;-69
2021/06/21 03:14:26;;;;;;;6.07;2.13;;;;;;;23.23;50.48;100811.66;4989159;28;20171;-69
2021/06/21 03:16:56;;;;;;;4.17;1.47;;;;;;;23.21;50.42;100811.69;4990795;28;20258;-68
2021/06/21 03:19:22;;;;;;;5.53;1.87;;;;;;;23.19;50.58;100804.81;4990296;28;20319;-70
2021/06/21 03:21:48;;;;;;;6.60;2.17;;;;;;;23.11;50.80;100799.81;4990745;28;20242;-71
2021/06/21 03:24:14;;;;;;;7.17;1.90;;;;;;;23.07;50.80;100790.34;4990634;28;20271;-71
2021/06/21 03:26:41;;;;;;;4.30;1.97;;;;;;;23.05;50.98;100786.09;4990489;28;20202;-71
2021/06/21 03:29:20;;;;;;;3.77;1.83;;;;;;;23.00;51.51;100788.00;4989319;28;20176;-71
2021/06/21 03:31:48;;;;;;;4.27;1.70;;;;;;;23.01;51.04;100793.16;4989102;28;20645;-69
2021/06/21 03:34:15;;;;;;;6.80;2.13;;;;;;;23.00;51.16;100798.44;4990574;28;20599;-71
2021/06/21 03:36:40;;;;;;;4.03;1.80;;;;;;;22.98;51.28;100808.09;4990386;28;20175;-72
2021/06/21 03:39:06;;;;;;;5.23;2.10;;;;;;;22.99;51.52;100809.81;4989480;28;20796;-72
2021/06/21 03:41:31;;;;;;;7.90;2.03;;;;;;;22.99;51.00;100813.28;4990330;28;20242;-71
2021/06/21 03:43:57;;;;;;;4.73;2.20;;;;;;;22.98;51.17;100795.88;4990222;28;20719;-71
2021/06/21 03:46:22;;;;;;;4.53;1.53;;;;;;;23.02;51.24;100804.50;4990401;28;20536;-71
2021/06/21 03:48:48;;;;;;;3.70;1.87;;;;;;;23.02;51.13;100809.72;4990180;28;20167;-68
2021/06/21 03:51:13;;;;;;;2.37;1.40;;;;;;;23.05;51.04;100825.28;4988768;28;20188;-69
2021/06/21 03:53:38;;;;;;;4.47;2.00;;;;;;;23.06;51.00;100816.56;4989988;28;20178;-72
2021/06/21 03:56:04;;;;;;;3.60;2.00;;;;;;;23.05;51.23;100801.75;4992543;28;20778;-71
2021/06/21 03:58:29;;;;;;;4.27;2.10;;;;;;;23.02;51.16;100783.59;4993140;28;20210;-71
2021/06/21 04:00:55;;;;;;;3.67;1.90;;;;;;;22.95;51.31;100779.44;4993950;28;20214;-70
2021/06/21 04:03:20;;;;;;;3.77;1.70;;;;;;;22.95;51.32;100787.28;4993969;28;20222;-70
2021/06/21 04:05:46;;;;;;;3.03;1.80;;;;;;;22.97;51.47;100788.94;4992760;28;20179;-69
2021/06/21 04:08:13;;;;;;;3.97;1.77;;;;;;;23.00;51.00;100764.47;4993992;28;20183;-71
2021/06/21 04:10:40;;;;;;;5.50;2.10;;;;;;;22.97;51.59;100759.38;4993628;28;20195;-70
2021/06/21 04:13:06;;;;;;;5.57;1.70;;;;;;;22.98;51.27;100751.47;4992482;28;20242;-68
2021/06/21 04:15:32;;;;;;;6.33;1.83;;;;;;;22.98;51.20;100750.63;4994147;28;20172;-70
2021/06/21 04:17:59;;;;;;;3.20;1.80;;;;;;;22.97;51.24;100744.53;4994013;28;20171;-69
2021/06/21 04:20:25;;;;;;;4.03;1.63;;;;;;;22.92;51.55;100743.00;4993434;28;20227;-72
2021/06/21 04:22:51;;;;;;;3.30;1.87;;;;;;;22.88;51.57;100737.00;4992279;28;20172;-71
2021/06/21 04:25:17;;;;;;;5.53;1.80;;;;;;;22.81;51.56;100735.50;4993924;28;20254;-69
2021/06/21 04:27:43;;;;;;;3.47;1.63;;;;;;;22.86;51.78;100737.94;4993900;28;20848;-69
2021/06/21 04:30:11;;;;;;;4.47;1.80;;;;;;;22.88;51.66;100744.84;4993522;28;20267;-72
2021/06/21 04:32:36;;;;;;;3.43;2.00;;;;;;;22.88;51.48;100742.22;4992408;28;20211;-72
2021/06/21 04:35:04;;;;;;;2.87;1.60;;;;;;;22.87;51.47;100735.28;4993797;28;20176;-72
2021/06/21 04:37:29;;;;;;;4.63;1.43;;;;;;;22.91;51.70;100751.72;4993513;28;20222;-72
2021/06/21 04:39:54;;;;;;;3.37;1.67;;;;;;;22.94;51.57;100762.94;4992785;28;20235;-71
2021/06/21 04:42:20;;;;;;;4.30;1.50;;;;;;;22.99;51.56;100763.66;4993437;28;20194;-73
2021/06/21 04:44:46;;;;;;;4.70;1.40;;;;;;;23.06;51.35;100759.06;4993715;28;20202;-70
2021/06/21 04:47:11;;;;;;;2.10;1.20;;;;;;;23.10;51.19;100750.19;4992399;28;20183;-72
2021/06/21 04:49:37;;;;;;;3.07;1.60;;;;;;;23.15;50.53;100758.78;4989476;28;20555;-70
2021/06/21 04:52:05;;;;;;;2.93;1.40;;;;;;;23.17;50.73;100751.72;4986472;28;20193;-73
2021/06/21 04:54:31;;;;;;;1.67;1.10;;;;;;;23.17;51.42;100744.75;4973995;28;20255;-73
2021/06/21 04:56:56;;;;;;;3.23;0.90;;;;;;;23.19;50.99;100737.72;4994482;28;20271;-70
2021/06/21 04:59:21;;;;;;;2.20;1.20;;;;;;;23.21;50.66;100741.13;4973943;28;20215;-70
2021/06/21 05:01:46;;;;;;;2.80;1.13;;;;;;;23.24;50.83;100735.81;4986513;28;20183;-71
2021/06/21 05:04:12;;;;;;;2.80;1.23;;;;;;;23.25;50.78;100740.13;4989105;28;20235;-72
2021/06/21 05:06:38;;;;;;;3.97;1.30;;;;;;;23.28;50.75;100731.31;4991120;28;20640;-72
2021/06/21 05:09:04;;;;;;;3.50;1.20;;;;;;;23.29;50.52;100727.84;4974392;28;20188;-69
2021/06/21 05:11:30;;;;;;;2.27;1.20;;;;;;;23.30;50.94;100719.91;4988120;28;20571;-72
2021/06/21 05:13:56;;;;;;;1.40;1.00;;;;;;;23.31;50.50;100718.16;4980711;28;20175;-71
2021/06/21 05:16:21;;;;;;;1.80;1.00;;;;;;;23.32;50.55;100705.03;4982915;28;20574;-70
2021/06/21 05:18:47;;;;;;;2.07;0.90;;;;;;;23.34;50.79;100681.47;4981878;28;20258;-70
2021/06/21 05:21:12;;;;;;;1.87;1.10;;;;;;;23.34;50.79;100668.41;4992884;28;20200;-72
2021/06/21 05:23:37;;;;;;;2.63;1.20;;;;;;;23.34;50.72;100668.41;4992918;28;20191;-70
2021/06/21 05:26:03;;;;;;;2.93;1.10;;;;;;;23.33;50.74;100669.28;4993382;28;20187;-70
2021/06/21 05:28:29;;;;;;;2.40;1.07;;;;;;;23.21;51.39;100660.13;4983708;28;20186;-72
2021/06/21 05:30:54;;;;;;;12.00;1.83;;;;;;;23.28;51.32;100650.28;4973068;28;20688;-72
2021/06/21 05:33:19;;;;;;;6.27;1.50;;;;;;;23.35;51.27;100649.19;4973304;28;20175;-70
2021/06/21 05:35:44;;;;;;;3.97;1.30;;;;;;;23.39;51.03;100637.72;4973290;28;20217;-73
2021/06/21 05:38:10;;;;;;;6.40;1.00;;;;;;;23.42;50.93;100634.97;4973099;28;20172;-73
2021/06/21 05:40:35;;;;;;;1.93;1.10;;;;;;;23.44;50.83;100622.72;4972790;28;20199;-70
2021/06/21 05:43:01;;;;;;;4.13;1.13;;;;;;;23.44;50.92;100613.09;4973173;28;20946;-72
2021/06/21 05:45:26;;;;;;;2.03;0.83;;;;;;;23.47;50.82;100612.13;4971667;28;20267;-69
2021/06/21 05:47:51;;;;;;;8.07;1.10;;;;;;;23.49;50.72;100641.69;4973339;28;20177;-72
2021/06/21 05:50:17;;;;;;;7.00;1.40;;;;;;;23.49;50.90;100647.78;4976763;28;20200;-72
2021/06/21 05:52:42;;;;;;;1.30;0.80;;;;;;;23.50;50.57;100641.66;4981216;28;20187;-72
2021/06/21 05:55:08;;;;;;;3.40;1.00;;;;;;;23.53;50.61;100625.00;4974023;28;20187;-71
2021/06/21 05:57:34;;;;;;;3.47;0.90;;;;;;;23.53;50.53;100620.59;4983934;28;20251;-71
2021/06/21 05:59:59;;;;;;;3.97;1.13;;;;;;;23.54;50.44;100611.00;4972783;28;20617;-70
2021/06/21 06:02:25;;;;;;;3.10;1.17;;;;;;;23.57;50.55;100611.72;4985812;28;20671;-72
2021/06/21 06:04:51;;;;;;;3.27;1.13;;;;;;;23.58;50.49;100591.69;4998740;28;20200;-70
2021/06/21 06:07:17;;;;;;;1.13;0.90;;;;;;;23.60;50.50;100616.00;4982423;28;20184;-72
2021/06/21 06:09:44;;;;;;;2.87;0.90;;;;;;;23.61;50.25;100643.88;4980497;28;20220;-71
2021/06/21 06:12:09;;;;;;;3.23;1.20;;;;;;;23.62;50.30;100630.72;4997467;28;20684;-73
2021/06/21 06:14:35;;;;;;;2.63;1.00;;;;;;;23.65;50.19;100614.06;4975480;28;20266;-72
2021/06/21 06:17:00;;;;;;;3.67;1.00;;;;;;;23.66;50.34;100611.38;4972244;28;20168;-73
2021/06/21 06:19:26;;;;;;;1.73;0.70;;;;;;;23.68;50.25;100609.59;4970162;28;20219;-72
2021/06/21 06:21:51;;;;;;;2.63;1.00;;;;;;;23.69;50.05;100607.81;4972676;28;20219;-72
2021/06/21 06:24:17;;;;;;;3.13;0.83;;;;;;;23.70;50.31;100609.50;4972071;28;20267;-69
2021/06/21 06:26:43;;;;;;;2.27;1.13;;;;;;;23.72;50.31;100610.31;4987267;28;20536;-70
2021/06/21 06:29:10;;;;;;;0.87;0.80;;;;;;;23.72;50.11;100621.66;4971965;28;20180;-73
2021/06/21 06:31:35;;;;;;;1.77;0.93;;;;;;;23.73;49.91;100625.97;4972314;28;20177;-72
2021/06/21 06:34:01;;;;;;;1.63;1.00;;;;;;;23.74;50.04;100609.34;4972499;28;20235;-73
2021/06/21 06:36:26;;;;;;;1.23;0.80;;;;;;;23.75;50.21;100611.03;4970770;28;20208;-72
2021/06/21 06:38:51;;;;;;;1.27;0.70;;;;;;;23.76;50.13;100607.50;4970323;28;20180;-73
2021/06/21 06:41:16;;;;;;;1.60;0.70;;;;;;;23.77;50.03;100609.25;4972100;28;20234;-71
2021/06/21 06:43:42;;;;;;;2.47;1.00;;;;;;;23.78;49.89;100612.69;4971973;28;20192;-73
2021/06/21 06:46:08;;;;;;;1.47;1.00;;;;;;;23.79;50.17;100624.84;4971993;28;20713;-70
2021/06/21 06:48:34;;;;;;;1.17;0.80;;;;;;;23.79;50.13;100615.25;4970434;28;20635;-71
2021/06/21 06:50:59;;;;;;;1.03;0.70;;;;;;;23.80;50.01;100616.94;4975413;28;20295;-72
2021/06/21 06:53:27;;;;;;;1.47;0.90;;;;;;;23.80;50.32;100622.19;4987120;28;20183;-73
2021/06/21 06:58:51;;;;;;;1.57;0.90;;;;;;;23.81;50.15;100623.88;4949372;28;20192;-72
2021/06/21 07:01:16;;;;;;;0.93;0.90;;;;;;;23.80;50.05;100622.19;4971857;28;20688;-70
2021/06/21 07:03:41;;;;;;;1.37;0.90;;;;;;;23.83;50.18;100629.06;4970363;28;20212;-70
2021/06/21 07:06:07;;;;;;;1.33;0.60;;;;;;;23.83;50.20;100632.53;5005466;28;20209;-70
2021/06/21 07:08:33;;;;;;;1.57;0.70;;;;;;;23.84;50.03;100636.84;4991142;28;20633;-71
2021/06/21 07:10:58;;;;;;;1.30;0.80;;;;;;;23.86;49.88;100629.81;4990873;28;20218;-69
2021/06/21 07:13:23;;;;;;;1.47;0.80;;;;;;;23.86;50.09;100626.34;4991014;28;20187;-72
2021/06/21 07:15:49;;;;;;;0.90;0.80;;;;;;;23.87;50.09;100628.03;4990919;28;20179;-72
2021/06/21 07:18:14;;;;;;;1.13;0.70;;;;;;;;;;4990809;28;20547;-71
2021/06/21 07:20:39;;;;;;;1.43;0.80;;;;;;;23.88;49.93;100627.97;4990421;28;20227;-73
2021/06/21 07:23:05;;;;;;;0.80;0.60;;;;;;;23.88;50.03;100625.38;4990708;28;20645;-70
2021/06/21 07:25:30;;;;;;;1.43;0.87;;;;;;;23.89;49.85;100626.22;4991096;28;20194;-72
2021/06/21 07:27:55;;;;;;;1.03;0.87;;;;;;;23.90;49.95;100628.78;4990953;28;20806;-72
2021/06/21 07:30:21;;;;;;;1.03;0.77;;;;;;;23.90;50.01;100635.81;4989452;28;20203;-72
2021/06/21 07:32:46;;;;;;;1.23;0.63;;;;;;;23.90;50.10;100641.88;4987337;28;20187;-71
2021/06/21 07:35:12;;;;;;;1.47;0.80;;;;;;;23.91;49.97;100640.13;4971353;28;20172;-71
2021/06/21 07:37:37;;;;;;;0.70;0.70;;;;;;;23.90;49.98;100641.88;4971210;28;20173;-69
2021/06/21 07:40:04;;;;;;;0.90;0.70;;;;;;;23.92;49.92;100647.06;4970889;28;20207;-72
2021/06/21 07:42:30;;;;;;;0.93;0.80;;;;;;;23.91;49.90;100646.22;4970995;28;20184;-70
2021/06/21 07:44:55;;;;;;;1.07;0.70;;;;;;;23.92;50.03;100649.69;4971005;28;20255;-73
2021/06/21 07:47:21;;;;;;;1.47;0.80;;;;;;;23.93;50.23;100648.75;4971049;28;20187;-72
2021/06/21 07:49:46;;;;;;;1.13;0.50;;;;;;;23.93;50.02;100644.38;4972953;28;20207;-72
2021/06/21 07:52:11;;;;;;;1.53;0.60;;;;;;;23.93;50.00;100647.00;4990305;28;20175;-73
2021/06/21 07:54:37;;;;;;;2.37;1.33;;;;;;;23.94;49.74;100645.25;4990618;28;20645;-69
2021/06/21 07:57:02;;;;;;;0.60;0.50;;;;;;;23.94;49.85;100646.09;4990302;28;20179;-71
2021/06/21 07:59:27;;;;;;;1.37;0.83;;;;;;;23.95;50.22;100645.19;4990082;28;20199;-69
2021/06/21 08:01:53;;;;;;;2.07;0.63;;;;;;;23.95;49.89;100641.72;4990325;28;20186;-72
2021/06/21 08:04:18;;;;;;;0.80;0.60;;;;;;;23.97;49.82;100643.38;4990137;28;20811;-70
2021/06/21 08:06:43;;;;;;;1.37;0.60;;;;;;;23.97;49.91;100638.13;4990318;28;20180;-71
2021/06/21 08:09:08;;;;;;;1.00;0.57;;;;;;;23.97;49.93;100639.88;5004991;28;20190;-70
2021/06/21 08:11:34;;;;;;;1.37;0.80;;;;;;;23.97;50.11;100645.97;5005236;28;20253;-69
2021/06/21 08:13:59;;;;;;;0.60;0.60;;;;;;;23.98;49.76;100642.44;4990269;28;20536;-72
2021/06/21 08:16:26;;;;;;;0.80;0.63;;;;;;;23.97;50.12;100632.91;4990402;28;20191;-72
2021/06/21 08:18:51;;;;;;;0.93;0.73;;;;;;;23.99;49.94;100632.84;4990154;28;20827;-72
2021/06/21 08:21:16;;;;;;;2.10;0.60;;;;;;;23.99;50.10;100633.69;4988982;28;20253;-71
2021/06/21 08:23:41;;;;;;;0.83;0.70;;;;;;;23.99;49.86;100633.69;4990418;28;20652;-72
2021/06/21 08:26:07;;;;;;;0.80;0.70;;;;;;;24.00;49.99;100640.63;4990244;28;20183;-69
2021/06/21 08:28:32;;;;;;;1.27;0.70;;;;;;;24.00;50.02;100639.78;5005157;28;20188;-72
2021/06/21 08:30:57;;;;;;;1.00;0.77;;;;;;;24.01;49.98;100638.84;4989810;28;20196;-70
2021/06/21 08:33:23;;;;;;;1.37;0.80;;;;;;;24.01;49.91;100639.72;4990036;28;20176;-71
2021/06/21 08:35:48;;;;;;;1.33;0.80;;;;;;;23.96;50.65;100648.66;4990896;28;20503;-71
2021/06/21 08:38:13;;;;;;;1.73;0.80;;;;;;;24.00;50.93;100645.88;4990160;28;20180;-70
2021/06/21 08:40:39;;;;;;;3.53;0.80;;;;;;;24.03;50.33;100642.28;4989995;28;20653;-74
2021/06/21 08:43:04;;;;;;;1.30;0.70;;;;;;;24.05;50.04;100645.69;4993788;28;20175;-73
2021/06/21 08:45:32;;;;;;;2.77;0.97;;;;;;;24.05;49.97;100646.53;4993572;28;20266;-73
2021/06/21 08:47:58;;;;;;;3.17;1.07;;;;;;;24.07;50.16;100647.31;4992096;28;20274;-72
2021/06/21 08:50:25;;;;;;;3.37;0.70;;;;;;;24.07;50.32;100649.94;4985981;28;20204;-72
2021/06/21 08:52:50;;;;;;;3.90;0.90;;;;;;;24.10;50.03;100641.13;4974175;28;20173;-73
2021/06/21 08:55:16;;;;;;;3.67;0.70;;;;;;;24.09;50.04;100642.91;4974103;28;20536;-73
2021/06/21 08:57:45;;;;;;;5.17;1.00;;;;;;;24.09;50.09;100648.13;4974062;28;20191;-73
2021/06/21 09:00:12;;;;;;;4.63;0.77;;;;;;;24.10;50.16;100647.22;4973713;28;20762;-72
2021/06/21 09:02:37;;;;;;;5.80;0.90;;;;;;;24.08;50.56;100641.16;4973919;28;20259;-72
2021/06/21 09:05:08;;;;;;;3.40;0.90;;;;;;;24.06;51.00;100642.16;4973713;28;20295;-73
2021/06/21 09:07:34;;;;;;;2.30;0.97;;;;;;;24.02;51.67;100644.03;4981573;28;20220;-72
2021/06/21 09:10:04;;;;;;;2.87;0.90;;;;;;;23.99;51.86;100644.16;4987128;28;20200;-72
2021/06/21 09:12:31;;;;;;;1.90;0.87;;;;;;;24.01;51.58;100641.47;4975094;28;20652;-74
2021/06/21 09:14:59;;;;;;;3.40;0.90;;;;;;;24.03;52.32;100634.44;4993227;28;20551;-72
2021/06/21 09:17:26;;;;;;;1.00;0.80;;;;;;;23.98;51.89;100631.97;4989342;28;20645;-73
2021/06/21 09:19:56;;;;;;;1.27;0.73;;;;;;;23.99;52.17;100633.69;4982926;28;20580;-73
2021/06/21 09:22:21;;;;;;;1.73;0.80;;;;;;;24.00;52.52;100632.78;4992991;28;20186;-69
2021/06/21 09:24:47;;;;;;;1.47;0.90;;;;;;;24.02;52.58;100622.22;4992893;28;20196;-70
2021/06/21 09:27:17;;;;;;;1.80;0.97;;;;;;;24.02;52.44;100623.09;4992899;28;20183;-70
2021/06/21 09:29:42;;;;;;;4.27;0.97;;;;;;;24.04;52.77;100623.03;4992871;28;20571;-70
2021/06/21 09:32:08;;;;;;;0.77;0.70;;;;;;;23.98;52.83;100629.34;4993208;28;20179;-69
2021/06/21 09:34:34;;;;;;;1.03;0.93;;;;;;;23.99;53.19;100627.59;4992982;28;20175;-69
2021/06/21 09:37:12;;;;;;;1.00;0.67;;;;;;;24.03;52.35;100639.66;4992818;28;20544;-70
2021/06/21 09:39:39;;;;;;;3.20;1.00;;;;;;;24.06;53.30;100627.31;4992183;28;20203;-70
2021/06/21 09:42:09;;;;;;;2.73;1.00;;;;;;;24.08;53.17;100619.41;4992630;28;20199;-69
2021/06/21 09:44:39;;;;;;;5.10;2.30;;;;;;;24.09;53.27;100627.19;4992639;28;20540;-71
2021/06/21 09:47:25;;;;;;;12.70;6.37;;;;;;;24.12;53.64;100628.84;4992654;28;20176;-70
2021/06/21 09:49:54;;;;;;;19.23;10.17;;;;;;;24.14;53.89;100625.25;4992506;28;20196;-69
2021/06/21 09:52:36;;;;;;;44.63;20.70;;;;;;;24.14;54.88;100622.63;4990227;28;20180;-71
2021/06/21 09:55:20;;;;;;;43.87;17.37;;;;;;;24.18;54.58;100628.59;4992476;28;20175;-70
2021/06/21 09:58:00;;;;;;;50.47;19.00;;;;;;;24.20;55.24;100625.00;4991624;28;20529;-70
2021/06/21 10:00:26;;;;;;;35.00;15.27;;;;;;;24.24;55.85;100625.72;4991915;28;20235;-70
2021/06/21 10:03:14;;;;;;;32.57;12.53;;;;;;;24.24;56.22;100630.97;4992248;28;20262;-68
2021/06/21 10:05:43;;;;;;;22.73;9.47;;;;;;;24.24;56.48;100633.56;4992159;28;20210;-70
2021/06/21 10:08:10;;;;;;;18.97;8.80;;;;;;;24.24;56.34;100639.69;4991602;28;20552;-69
2021/06/21 10:10:37;;;;;;;20.40;7.53;;;;;;;24.24;54.11;100642.28;4991856;28;20204;-71
2021/06/21 10:13:04;;;;;;;15.00;6.60;;;;;;;24.29;57.47;100647.34;4990769;28;20184;-70
2021/06/21 10:15:29;;;;;;;10.93;5.43;;;;;;;24.28;57.38;100651.72;4990686;28;20215;-70
2021/06/21 10:17:55;;;;;;;8.57;4.50;;;;;;;24.28;57.62;100645.63;4991938;28;20179;-71
2021/06/21 10:20:20;;;;;;;9.37;3.70;;;;;;;24.29;57.95;100640.34;4991099;28;20215;-71
2021/06/21 10:22:46;;;;;;;5.70;3.23;;;;;;;24.29;58.06;100639.47;4987123;28;20180;-71
2021/06/21 10:25:12;;;;;;;4.57;2.47;;;;;;;24.28;57.49;100638.66;4977195;28;20219;-72
2021/06/21 10:27:44;;;;;;;5.60;2.90;;;;;;;24.31;58.02;100637.66;4972635;28;20168;-70
2021/06/21 10:30:18;;;;;;;4.13;1.93;;;;;;;24.30;57.32;100643.78;4991486;28;20656;-71
2021/06/21 10:32:46;;;;;;;5.23;2.10;;;;;;;24.21;56.32;100639.78;5007077;28;20538;-71
2021/06/21 10:35:12;;;;;;;4.17;1.70;;;;;;;24.19;55.67;100651.22;4992869;28;20636;-70
2021/06/21 10:37:39;;;;;;;3.33;1.60;;;;;;;24.17;55.06;100655.69;4992997;28;20208;-69
2021/06/21 10:40:08;;;;;;;2.40;1.73;;;;;;;24.19;54.77;100659.94;4971850;28;20311;-70
2021/06/21 10:42:41;;;;;;;3.03;1.40;;;;;;;24.14;54.76;100663.66;4972278;28;20184;-70
2021/06/21 10:45:10;;;;;;;2.37;1.40;;;;;;;24.11;54.21;100669.84;4972314;28;20199;-74
2021/06/21 10:47:40;;;;;;;2.63;1.40;;;;;;;24.13;54.04;100664.56;4972013;28;20696;-69
2021/06/21 10:50:18;;;;;;;2.93;1.40;;;;;;;24.12;53.72;100663.69;4971676;28;20208;-70
2021/06/21 10:52:59;;;;;;;2.87;1.30;;;;;;;24.13;53.84;100664.56;4971824;28;20266;-70
2021/06/21 10:55:28;;;;;;;1.50;1.20;;;;;;;24.15;53.58;100663.59;4972016;28;20172;-70
2021/06/21 10:58:05;;;;;;;2.20;1.33;;;;;;;24.18;53.59;100652.97;4971717;28;20179;-70
2021/06/21 11:00:37;;;;;;;2.37;1.50;;;;;;;24.17;53.38;100648.66;4970064;28;20215;-70
2021/06/21 11:03:23;;;;;;;1.97;1.30;;;;;;;24.11;53.26;100653.28;4970354;28;20176;-69
2021/06/21 11:05:48;;;;;;;2.60;1.73;;;;;;;24.11;53.35;100656.75;4964129;28;20227;-70
2021/06/21 11:08:38;;;;;;;3.07;1.60;;;;;;;24.12;53.09;100655.84;4971795;28;20664;-71
2021/06/21 11:11:33;;;;;;;2.30;1.50;;;;;;;24.12;53.26;100655.00;4960841;28;20216;-70
2021/06/21 11:14:16;;;;;;;3.53;1.77;;;;;;;24.07;53.32;100660.41;4977444;28;20175;-70
2021/06/21 11:16:43;;;;;;;3.27;1.97;;;;;;;24.05;53.38;100664.00;4981387;28;20190;-70
2021/06/21 11:19:23;;;;;;;2.80;1.90;;;;;;;24.06;53.44;100668.31;4990535;28;20796;-70
2021/06/21 11:21:54;;;;;;;4.00;1.70;;;;;;;24.10;53.19;100672.53;4989623;28;20210;-70
2021/06/21 11:24:35;;;;;;;2.97;1.73;;;;;;;24.09;53.33;100665.59;4989360;28;20227;-70
2021/06/21 11:27:01;;;;;;;3.17;2.07;;;;;;;24.04;53.42;100670.97;5005746;28;20541;-71
2021/06/21 11:29:31;;;;;;;2.07;1.63;;;;;;;24.01;53.38;100672.88;4990622;28;20586;-71